sensor_id;sensor_type;location;lat;lon;timestamp;noise_LAeq;noise_LA_min;noise_LA_max;noise_LA01;noise_LA95
1754;Laerm;58380;48.312;9.246;2023-06-19T05:58:25;47.96;40.04;62.88;;
1754;Laerm;58380;48.312;9.246;2023-06-19T06:00:51;46.91;39.23;58.17;;
1754;Laerm;58380;48.312;9.246;2023-06-19T06:03:25;45.73;39.21;54.67;;
1754;Laerm;58380;48.312;9.246;2023-06-19T06:05:51;46.83;38.46;56.98;;
1754;Laerm;58380;48.312;9.246;2023-06-19T06:08:17;44.30;38.19;60.56;;
1754;Laerm;58380;48.312;9.246;2023-06-19T06:10:42;46.17;37.53;59.14;;
1754;Laerm;58380;48.312;9.246;2023-06-19T06:13:08;46.70;35.55;61.55;;
1754;Laerm;58380;48.312;9.246;2023-06-19T06:15:33;46.24;35.11;56.96;;
1754;Laerm;58380;48.312;9.246;2023-06-19T06:17:59;49.38;37.10;61.53;;
1754;Laerm;58380;48.312;9.246;2023-06-19T06:20:24;47.99;40.95;58.76;;
1754;Laerm;58380;48.312;9.246;2023-06-19T06:22:50;43.88;37.91;54.84;;
1754;Laerm;58380;48.312;9.246;2023-06-19T06:25:15;46.74;38.19;70.75;;
1754;Laerm;58380;48.312;9.246;2023-06-19T06:27:41;47.41;38.17;73.29;;
1754;Laerm;58380;48.312;9.246;2023-06-19T06:30:08;44.21;37.09;70.48;;
1754;Laerm;58380;48.312;9.246;2023-06-19T06:32:33;46.10;39.31;61.55;;
1754;Laerm;58380;48.312;9.246;2023-06-19T06:34:59;46.86;37.00;59.73;;
1754;Laerm;58380;48.312;9.246;2023-06-19T06:37:24;45.31;37.77;61.97;;
1754;Laerm;58380;48.312;9.246;2023-06-19T06:39:50;44.59;37.28;59.44;;
1754;Laerm;58380;48.312;9.246;2023-06-19T06:42:17;43.02;36.49;56.59;;
1754;Laerm;58380;48.312;9.246;2023-06-19T06:44:43;45.69;35.96;59.61;;
1754;Laerm;58380;48.312;9.246;2023-06-19T06:47:08;45.17;35.55;60.69;;
1754;Laerm;58380;48.312;9.246;2023-06-19T06:49:34;43.12;36.09;58.65;;
1754;Laerm;58380;48.312;9.246;2023-06-19T06:52:05;45.97;39.61;56.80;;
1754;Laerm;58380;48.312;9.246;2023-06-19T06:54:31;45.51;37.89;57.01;;
1754;Laerm;58380;48.312;9.246;2023-06-19T06:56:56;45.73;36.32;61.37;;
1754;Laerm;58380;48.312;9.246;2023-06-19T06:59:24;44.94;34.26;54.50;;
1754;Laerm;58380;48.312;9.246;2023-06-19T07:01:50;44.67;35.90;57.08;;
1754;Laerm;58380;48.312;9.246;2023-06-19T07:04:16;43.64;33.65;53.78;;
1754;Laerm;58380;48.312;9.246;2023-06-19T07:06:41;44.37;33.71;58.25;;
1754;Laerm;58380;48.312;9.246;2023-06-19T07:09:07;43.58;35.11;51.43;;
1754;Laerm;58380;48.312;9.246;2023-06-19T07:11:32;43.53;34.83;56.47;;
1754;Laerm;58380;48.312;9.246;2023-06-19T07:13:58;47.46;36.66;57.40;;
1754;Laerm;58380;48.312;9.246;2023-06-19T07:16:23;45.16;36.31;59.62;;
1754;Laerm;58380;48.312;9.246;2023-06-19T07:18:49;46.12;38.94;60.33;;
1754;Laerm;58380;48.312;9.246;2023-06-19T07:21:14;42.75;34.04;55.80;;
1754;Laerm;58380;48.312;9.246;2023-06-19T07:23:42;46.87;37.84;60.54;;
1754;Laerm;58380;48.312;9.246;2023-06-19T07:26:09;45.72;34.84;56.61;;
1754;Laerm;58380;48.312;9.246;2023-06-19T07:28:35;44.54;33.39;67.17;;
1754;Laerm;58380;48.312;9.246;2023-06-19T07:31:04;50.56;37.40;75.04;;
1754;Laerm;58380;48.312;9.246;2023-06-19T07:33:29;45.65;36.23;68.81;;
1754;Laerm;58380;48.312;9.246;2023-06-19T07:35:55;47.94;35.31;74.05;;
1754;Laerm;58380;48.312;9.246;2023-06-19T07:38:21;49.08;36.37;70.48;;
1754;Laerm;58380;48.312;9.246;2023-06-19T07:40:47;47.58;36.09;69.99;;
1754;Laerm;58380;48.312;9.246;2023-06-19T07:43:12;48.96;36.64;69.87;;
1754;Laerm;58380;48.312;9.246;2023-06-19T07:45:37;45.29;35.92;63.53;;
1754;Laerm;58380;48.312;9.246;2023-06-19T07:48:03;44.90;34.73;59.53;;
1754;Laerm;58380;48.312;9.246;2023-06-19T07:50:28;42.71;35.04;56.33;;
1754;Laerm;58380;48.312;9.246;2023-06-19T07:52:53;46.96;36.95;60.88;;
1754;Laerm;58380;48.312;9.246;2023-06-19T07:55:19;46.38;34.23;58.50;;
1754;Laerm;58380;48.312;9.246;2023-06-19T07:57:44;43.62;34.76;61.54;;
1754;Laerm;58380;48.312;9.246;2023-06-19T08:00:10;46.32;38.05;61.47;;
1754;Laerm;58380;48.312;9.246;2023-06-19T08:02:40;46.17;36.56;59.23;;
1754;Laerm;58380;48.312;9.246;2023-06-19T08:05:10;46.51;33.97;59.33;;
1754;Laerm;58380;48.312;9.246;2023-06-19T08:07:36;44.19;36.90;62.00;;
1754;Laerm;58380;48.312;9.246;2023-06-19T08:10:02;47.96;37.50;62.74;;
1754;Laerm;58380;48.312;9.246;2023-06-19T08:12:29;46.89;35.53;61.06;;
1754;Laerm;58380;48.312;9.246;2023-06-19T08:14:55;51.18;36.37;79.75;;
1754;Laerm;58380;48.312;9.246;2023-06-19T08:17:20;44.24;35.30;59.97;;
1754;Laerm;58380;48.312;9.246;2023-06-19T08:19:45;45.67;36.86;59.28;;
1754;Laerm;58380;48.312;9.246;2023-06-19T08:22:11;46.39;37.56;61.00;;
1754;Laerm;58380;48.312;9.246;2023-06-19T08:24:36;47.19;36.88;62.40;;
1754;Laerm;58380;48.312;9.246;2023-06-19T08:27:04;48.66;36.95;70.26;;
1754;Laerm;58380;48.312;9.246;2023-06-19T08:29:29;45.54;36.50;57.62;;
1754;Laerm;58380;48.312;9.246;2023-06-19T08:31:55;46.53;36.21;64.82;;
1754;Laerm;58380;48.312;9.246;2023-06-19T08:34:20;45.79;35.81;58.10;;
1754;Laerm;58380;48.312;9.246;2023-06-19T08:36:45;44.92;37.87;55.53;;
1754;Laerm;58380;48.312;9.246;2023-06-19T08:39:11;45.69;34.31;58.20;;
1754;Laerm;58380;48.312;9.246;2023-06-19T08:41:37;46.49;37.25;57.80;;
1754;Laerm;58380;48.312;9.246;2023-06-19T08:44:04;45.06;34.48;63.51;;
1754;Laerm;58380;48.312;9.246;2023-06-19T08:46:30;46.25;37.28;59.59;;
1754;Laerm;58380;48.312;9.246;2023-06-19T08:48:56;47.82;36.48;61.37;;
1754;Laerm;58380;48.312;9.246;2023-06-19T08:51:21;48.40;38.56;69.00;;
1754;Laerm;58380;48.312;9.246;2023-06-19T08:53:53;47.03;36.13;67.54;;
1754;Laerm;58380;48.312;9.246;2023-06-19T08:56:19;47.98;34.34;68.04;;
1754;Laerm;58380;48.312;9.246;2023-06-19T08:58:44;46.88;36.90;60.82;;
1754;Laerm;58380;48.312;9.246;2023-06-19T09:01:09;49.98;38.91;70.94;;
1754;Laerm;58380;48.312;9.246;2023-06-19T09:03:35;47.48;37.92;59.75;;
1754;Laerm;58380;48.312;9.246;2023-06-19T09:06:06;49.48;37.39;60.73;;
1754;Laerm;58380;48.312;9.246;2023-06-19T09:08:32;47.42;34.05;61.06;;
1754;Laerm;58380;48.312;9.246;2023-06-19T09:10:59;50.91;35.58;61.86;;
1754;Laerm;58380;48.312;9.246;2023-06-19T09:13:25;48.23;38.92;57.77;;
1754;Laerm;58380;48.312;9.246;2023-06-19T09:16:03;45.42;34.20;56.54;;
1754;Laerm;58380;48.312;9.246;2023-06-19T09:18:30;47.65;34.89;56.81;;
1754;Laerm;58380;48.312;9.246;2023-06-19T09:20:57;47.13;37.91;64.16;;
1754;Laerm;58380;48.312;9.246;2023-06-19T09:23:24;46.09;38.74;59.30;;
1754;Laerm;58380;48.312;9.246;2023-06-19T09:25:52;50.80;35.87;63.14;;
1754;Laerm;58380;48.312;9.246;2023-06-19T09:28:26;46.20;35.53;56.13;;
1754;Laerm;58380;48.312;9.246;2023-06-19T09:33:23;46.77;38.87;59.40;;
1754;Laerm;58380;48.312;9.246;2023-06-19T09:35:50;48.83;35.92;59.62;;
1754;Laerm;58380;48.312;9.246;2023-06-19T09:38:17;46.04;35.50;63.21;;
1754;Laerm;58380;48.312;9.246;2023-06-19T09:40:47;42.28;33.78;56.97;;
1754;Laerm;58380;48.312;9.246;2023-06-19T09:45:49;46.09;34.29;65.36;;
1754;Laerm;58380;48.312;9.246;2023-06-19T09:48:27;45.64;35.88;54.86;;
1754;Laerm;58380;48.312;9.246;2023-06-19T09:51:00;44.76;35.22;57.84;;
1754;Laerm;58380;48.312;9.246;2023-06-19T09:53:26;44.65;36.30;54.26;;
1754;Laerm;58380;48.312;9.246;2023-06-19T09:55:52;44.85;35.28;59.49;;
1754;Laerm;58380;48.312;9.246;2023-06-19T09:58:20;44.46;35.16;61.15;;
1754;Laerm;58380;48.312;9.246;2023-06-19T10:00:47;42.92;35.88;53.28;;
1754;Laerm;58380;48.312;9.246;2023-06-19T10:03:13;42.01;36.23;55.72;;
1754;Laerm;58380;48.312;9.246;2023-06-19T10:05:39;42.16;33.54;62.86;;
1754;Laerm;58380;48.312;9.246;2023-06-19T10:08:06;40.39;33.75;53.80;;
1754;Laerm;58380;48.312;9.246;2023-06-19T10:10:33;42.60;34.44;64.75;;
1754;Laerm;58380;48.312;9.246;2023-06-19T10:13:11;43.22;34.62;56.79;;
1754;Laerm;58380;48.312;9.246;2023-06-19T10:15:42;41.70;34.10;57.74;;
1754;Laerm;58380;48.312;9.246;2023-06-19T10:18:15;44.28;36.50;68.84;;
1754;Laerm;58380;48.312;9.246;2023-06-19T10:20:42;45.53;34.14;69.22;;
1754;Laerm;58380;48.312;9.246;2023-06-19T10:23:13;43.31;35.40;59.33;;
1754;Laerm;58380;48.312;9.246;2023-06-19T10:25:45;43.12;34.39;54.99;;
1754;Laerm;58380;48.312;9.246;2023-06-19T10:28:27;43.53;33.68;55.64;;
1754;Laerm;58380;48.312;9.246;2023-06-19T10:31:01;42.58;34.89;64.08;;
1754;Laerm;58380;48.312;9.246;2023-06-19T10:33:35;44.88;36.30;57.93;;
1754;Laerm;58380;48.312;9.246;2023-06-19T10:36:17;43.79;33.43;60.58;;
1754;Laerm;58380;48.312;9.246;2023-06-19T10:38:45;42.53;35.16;52.15;;
1754;Laerm;58380;48.312;9.246;2023-06-19T10:41:21;42.98;36.31;54.49;;
1754;Laerm;58380;48.312;9.246;2023-06-19T10:44:03;50.61;35.79;64.07;;
1754;Laerm;58380;48.312;9.246;2023-06-19T10:46:35;46.26;34.70;61.40;;
1754;Laerm;58380;48.312;9.246;2023-06-19T10:49:02;47.73;34.74;58.85;;
1754;Laerm;58380;48.312;9.246;2023-06-19T10:51:37;46.60;33.64;56.62;;
1754;Laerm;58380;48.312;9.246;2023-06-19T10:54:04;47.29;35.59;58.25;;
1754;Laerm;58380;48.312;9.246;2023-06-19T10:56:29;47.65;38.50;56.51;;
1754;Laerm;58380;48.312;9.246;2023-06-19T10:59:01;48.69;38.41;58.29;;
1754;Laerm;58380;48.312;9.246;2023-06-19T11:01:35;44.05;33.94;53.50;;
1754;Laerm;58380;48.312;9.246;2023-06-19T11:04:12;43.49;32.15;60.06;;
1754;Laerm;58380;48.312;9.246;2023-06-19T11:06:39;44.58;31.62;57.99;;
1754;Laerm;58380;48.312;9.246;2023-06-19T11:09:10;47.25;34.03;58.13;;
1754;Laerm;58380;48.312;9.246;2023-06-19T11:14:03;48.81;38.42;60.34;;
1754;Laerm;58380;48.312;9.246;2023-06-19T11:16:29;46.66;35.89;66.41;;
1754;Laerm;58380;48.312;9.246;2023-06-19T11:18:58;45.14;37.15;63.55;;
1754;Laerm;58380;48.312;9.246;2023-06-19T11:21:36;47.93;35.45;57.65;;
1754;Laerm;58380;48.312;9.246;2023-06-19T11:24:10;45.71;39.19;54.66;;
1754;Laerm;58380;48.312;9.246;2023-06-19T11:26:46;47.23;34.52;72.29;;
1754;Laerm;58380;48.312;9.246;2023-06-19T11:29:26;60.29;33.54;91.81;;
1754;Laerm;58380;48.312;9.246;2023-06-19T11:32:14;51.20;34.66;79.14;;
1754;Laerm;58380;48.312;9.246;2023-06-19T11:34:40;51.58;33.62;75.33;;
1754;Laerm;58380;48.312;9.246;2023-06-19T11:37:17;49.44;35.66;74.93;;
1754;Laerm;58380;48.312;9.246;2023-06-19T11:39:48;45.86;36.68;70.04;;
1754;Laerm;58380;48.312;9.246;2023-06-19T11:42:14;48.38;37.04;59.75;;
1754;Laerm;58380;48.312;9.246;2023-06-19T11:45:03;46.04;38.04;61.51;;
1754;Laerm;58380;48.312;9.246;2023-06-19T11:47:31;56.26;36.56;86.17;;
1754;Laerm;58380;48.312;9.246;2023-06-19T11:49:58;48.94;36.05;68.79;;
1754;Laerm;58380;48.312;9.246;2023-06-19T11:52:23;56.20;38.11;88.71;;
1754;Laerm;58380;48.312;9.246;2023-06-19T11:54:49;50.36;38.11;79.08;;
1754;Laerm;58380;48.312;9.246;2023-06-19T11:57:15;55.94;34.73;85.65;;
1754;Laerm;58380;48.312;9.246;2023-06-19T11:59:41;54.88;33.14;81.98;;
1754;Laerm;58380;48.312;9.246;2023-06-19T12:02:07;68.40;33.00;96.34;;
1754;Laerm;58380;48.312;9.246;2023-06-19T12:04:33;50.50;33.67;74.23;;
1754;Laerm;58380;48.312;9.246;2023-06-19T12:07:00;52.01;35.06;83.19;;
1754;Laerm;58380;48.312;9.246;2023-06-19T12:09:26;50.36;34.83;74.36;;
1754;Laerm;58380;48.312;9.246;2023-06-19T12:11:52;53.28;37.36;83.99;;
1754;Laerm;58380;48.312;9.246;2023-06-19T12:14:18;49.14;38.35;74.69;;
1754;Laerm;58380;48.312;9.246;2023-06-19T12:16:48;51.62;36.40;74.28;;
1754;Laerm;58380;48.312;9.246;2023-06-19T12:19:14;47.76;36.04;72.35;;
1754;Laerm;58380;48.312;9.246;2023-06-19T12:21:39;49.69;38.30;78.20;;
1754;Laerm;58380;48.312;9.246;2023-06-19T12:24:06;47.81;34.85;77.95;;
1754;Laerm;58380;48.312;9.246;2023-06-19T12:26:34;52.49;34.55;81.75;;
1754;Laerm;58380;48.312;9.246;2023-06-19T12:29:03;52.80;36.07;81.33;;
1754;Laerm;58380;48.312;9.246;2023-06-19T12:31:31;49.79;34.27;78.50;;
1754;Laerm;58380;48.312;9.246;2023-06-19T12:33:57;65.14;33.02;95.69;;
1754;Laerm;58380;48.312;9.246;2023-06-19T12:36:22;50.64;34.63;76.21;;
1754;Laerm;58380;48.312;9.246;2023-06-19T12:38:48;51.62;33.98;84.11;;
1754;Laerm;58380;48.312;9.246;2023-06-19T12:41:14;51.25;33.95;81.04;;
1754;Laerm;58380;48.312;9.246;2023-06-19T12:43:40;47.35;34.89;75.94;;
1754;Laerm;58380;48.312;9.246;2023-06-19T12:46:06;49.32;36.62;79.11;;
1754;Laerm;58380;48.312;9.246;2023-06-19T12:48:32;56.34;33.82;87.30;;
1754;Laerm;58380;48.312;9.246;2023-06-19T12:50:58;49.15;34.08;74.82;;
1754;Laerm;58380;48.312;9.246;2023-06-19T12:53:23;56.56;35.27;85.07;;
1754;Laerm;58380;48.312;9.246;2023-06-19T12:55:52;53.88;34.86;80.43;;
1754;Laerm;58380;48.312;9.246;2023-06-19T12:58:18;50.61;32.64;72.96;;
1754;Laerm;58380;48.312;9.246;2023-06-19T13:00:44;52.22;34.99;83.35;;
1754;Laerm;58380;48.312;9.246;2023-06-19T13:03:09;51.34;36.98;77.60;;
1754;Laerm;58380;48.312;9.246;2023-06-19T13:05:35;47.18;37.49;56.65;;
1754;Laerm;58380;48.312;9.246;2023-06-19T13:08:01;45.11;34.82;64.26;;
1754;Laerm;58380;48.312;9.246;2023-06-19T13:10:26;47.33;34.90;69.98;;
1754;Laerm;58380;48.312;9.246;2023-06-19T13:12:52;48.49;37.08;68.31;;
1754;Laerm;58380;48.312;9.246;2023-06-19T13:15:17;45.96;35.67;63.72;;
1754;Laerm;58380;48.312;9.246;2023-06-19T13:17:43;47.08;36.75;73.60;;
1754;Laerm;58380;48.312;9.246;2023-06-19T13:20:08;47.17;36.24;65.25;;
1754;Laerm;58380;48.312;9.246;2023-06-19T13:22:34;47.92;36.91;74.18;;
1754;Laerm;58380;48.312;9.246;2023-06-19T13:24:59;45.89;33.56;69.19;;
1754;Laerm;58380;48.312;9.246;2023-06-19T13:27:24;53.79;38.34;84.62;;
1754;Laerm;58380;48.312;9.246;2023-06-19T13:29:50;46.45;37.43;60.24;;
1754;Laerm;58380;48.312;9.246;2023-06-19T13:32:15;54.44;36.10;82.20;;
1754;Laerm;58380;48.312;9.246;2023-06-19T13:34:41;42.61;34.19;56.18;;
1754;Laerm;58380;48.312;9.246;2023-06-19T13:37:07;47.85;37.39;79.45;;
1754;Laerm;58380;48.312;9.246;2023-06-19T13:39:32;56.61;34.35;85.38;;
1754;Laerm;58380;48.312;9.246;2023-06-19T13:41:57;54.17;35.36;84.59;;
1754;Laerm;58380;48.312;9.246;2023-06-19T13:44:26;51.50;35.55;83.38;;
1754;Laerm;58380;48.312;9.246;2023-06-19T13:46:51;56.79;35.89;89.28;;
1754;Laerm;58380;48.312;9.246;2023-06-19T13:49:17;59.38;38.72;89.52;;
1754;Laerm;58380;48.312;9.246;2023-06-19T13:51:43;42.93;32.38;58.92;;
1754;Laerm;58380;48.312;9.246;2023-06-19T13:54:09;52.25;37.27;80.25;;
1754;Laerm;58380;48.312;9.246;2023-06-19T13:56:35;45.38;33.29;69.06;;
1754;Laerm;58380;48.312;9.246;2023-06-19T13:59:02;39.35;33.53;58.01;;
1754;Laerm;58380;48.312;9.246;2023-06-19T14:01:28;42.21;33.45;56.30;;
1754;Laerm;58380;48.312;9.246;2023-06-19T14:03:53;44.54;34.14;60.84;;
1754;Laerm;58380;48.312;9.246;2023-06-19T14:06:19;46.59;36.43;58.04;;
1754;Laerm;58380;48.312;9.246;2023-06-19T14:08:44;50.66;39.78;80.25;;
1754;Laerm;58380;48.312;9.246;2023-06-19T14:11:10;57.97;38.00;85.84;;
1754;Laerm;58380;48.312;9.246;2023-06-19T14:13:37;50.49;38.24;72.49;;
1754;Laerm;58380;48.312;9.246;2023-06-19T14:16:02;51.25;39.66;75.39;;
1754;Laerm;58380;48.312;9.246;2023-06-19T14:18:28;52.00;43.09;74.00;;
1754;Laerm;58380;48.312;9.246;2023-06-19T14:20:53;51.44;40.00;73.36;;
1754;Laerm;58380;48.312;9.246;2023-06-19T14:23:19;51.23;41.32;79.25;;
1754;Laerm;58380;48.312;9.246;2023-06-19T14:25:44;54.42;40.82;86.30;;
1754;Laerm;58380;48.312;9.246;2023-06-19T14:28:09;48.38;39.78;64.00;;
1754;Laerm;58380;48.312;9.246;2023-06-19T14:30:35;52.04;35.72;82.71;;
1754;Laerm;58380;48.312;9.246;2023-06-19T14:33:01;46.60;38.85;70.28;;
1754;Laerm;58380;48.312;9.246;2023-06-19T14:35:27;49.21;33.39;79.88;;
1754;Laerm;58380;48.312;9.246;2023-06-19T14:37:52;48.94;36.44;68.24;;
1754;Laerm;58380;48.312;9.246;2023-06-19T14:40:18;48.21;35.34;67.93;;
1754;Laerm;58380;48.312;9.246;2023-06-19T14:42:43;46.16;37.98;60.75;;
1754;Laerm;58380;48.312;9.246;2023-06-19T14:45:09;49.52;36.86;80.86;;
1754;Laerm;58380;48.312;9.246;2023-06-19T14:47:34;57.57;41.07;91.78;;
1754;Laerm;58380;48.312;9.246;2023-06-19T14:50:00;49.30;38.67;68.29;;
1754;Laerm;58380;48.312;9.246;2023-06-19T14:52:25;48.88;37.36;67.71;;
1754;Laerm;58380;48.312;9.246;2023-06-19T14:54:51;50.89;39.01;70.67;;
1754;Laerm;58380;48.312;9.246;2023-06-19T14:57:16;46.26;38.05;63.94;;
1754;Laerm;58380;48.312;9.246;2023-06-19T14:59:42;48.94;39.32;75.29;;
1754;Laerm;58380;48.312;9.246;2023-06-19T15:02:07;60.22;38.09;84.28;;
1754;Laerm;58380;48.312;9.246;2023-06-19T15:04:33;47.14;37.22;77.13;;
1754;Laerm;58380;48.312;9.246;2023-06-19T15:06:59;52.22;37.86;78.02;;
1754;Laerm;58380;48.312;9.246;2023-06-19T15:09:25;55.86;40.42;84.09;;
1754;Laerm;58380;48.312;9.246;2023-06-19T15:11:51;53.27;42.38;79.43;;
1754;Laerm;58380;48.312;9.246;2023-06-19T15:14:16;50.35;42.05;73.95;;
1754;Laerm;58380;48.312;9.246;2023-06-19T15:16:42;47.98;39.84;75.37;;
1754;Laerm;58380;48.312;9.246;2023-06-19T15:19:08;49.08;41.15;62.78;;
1754;Laerm;58380;48.312;9.246;2023-06-19T15:21:33;46.13;39.83;59.12;;
1754;Laerm;58380;48.312;9.246;2023-06-19T15:23:58;46.52;37.98;58.58;;
1754;Laerm;58380;48.312;9.246;2023-06-19T15:26:24;46.08;35.60;58.64;;
1754;Laerm;58380;48.312;9.246;2023-06-19T15:28:49;47.55;37.31;59.59;;
1754;Laerm;58380;48.312;9.246;2023-06-19T15:31:20;48.34;37.15;62.16;;
1754;Laerm;58380;48.312;9.246;2023-06-19T15:33:46;46.64;36.84;63.48;;
1754;Laerm;58380;48.312;9.246;2023-06-19T15:36:11;46.82;34.76;61.82;;
1754;Laerm;58380;48.312;9.246;2023-06-19T15:38:37;49.55;37.68;70.97;;
1754;Laerm;58380;48.312;9.246;2023-06-19T15:41:02;53.53;35.81;84.31;;
1754;Laerm;58380;48.312;9.246;2023-06-19T15:43:28;68.80;35.67;102.32;;
1754;Laerm;58380;48.312;9.246;2023-06-19T15:45:55;55.55;35.29;86.42;;
1754;Laerm;58380;48.312;9.246;2023-06-19T15:48:21;56.71;36.66;87.01;;
1754;Laerm;58380;48.312;9.246;2023-06-19T15:50:47;53.19;34.81;86.00;;
1754;Laerm;58380;48.312;9.246;2023-06-19T15:53:13;56.50;34.59;81.19;;
1754;Laerm;58380;48.312;9.246;2023-06-19T15:55:38;51.71;38.78;78.61;;
1754;Laerm;58380;48.312;9.246;2023-06-19T15:58:03;59.73;40.29;93.83;;
1754;Laerm;58380;48.312;9.246;2023-06-19T16:00:29;53.14;39.96;77.23;;
1754;Laerm;58380;48.312;9.246;2023-06-19T16:02:54;53.68;39.29;82.00;;
1754;Laerm;58380;48.312;9.246;2023-06-19T16:05:19;55.30;37.83;84.42;;
1754;Laerm;58380;48.312;9.246;2023-06-19T16:07:45;49.67;37.04;74.21;;
1754;Laerm;58380;48.312;9.246;2023-06-19T16:10:10;56.72;35.85;83.66;;
1754;Laerm;58380;48.312;9.246;2023-06-19T16:12:36;59.50;35.76;78.35;;
1754;Laerm;58380;48.312;9.246;2023-06-19T16:15:02;54.83;34.70;79.40;;
1754;Laerm;58380;48.312;9.246;2023-06-19T16:17:27;47.72;36.32;70.08;;
1754;Laerm;58380;48.312;9.246;2023-06-19T16:19:53;59.51;35.29;93.43;;
1754;Laerm;58380;48.312;9.246;2023-06-19T16:22:18;55.89;39.08;81.97;;
1754;Laerm;58380;48.312;9.246;2023-06-19T16:24:43;61.06;35.54;86.67;;
1754;Laerm;58380;48.312;9.246;2023-06-19T16:27:09;60.38;37.30;83.59;;
1754;Laerm;58380;48.312;9.246;2023-06-19T16:29:34;60.86;38.77;88.89;;
1754;Laerm;58380;48.312;9.246;2023-06-19T16:31:59;60.01;36.29;76.65;;
1754;Laerm;58380;48.312;9.246;2023-06-19T16:34:25;56.08;37.71;82.23;;
1754;Laerm;58380;48.312;9.246;2023-06-19T16:36:51;57.17;35.30;74.50;;
1754;Laerm;58380;48.312;9.246;2023-06-19T16:39:16;54.95;35.87;78.09;;
1754;Laerm;58380;48.312;9.246;2023-06-19T16:41:44;49.31;35.88;73.82;;
1754;Laerm;58380;48.312;9.246;2023-06-19T16:44:09;54.30;35.60;67.62;;
1754;Laerm;58380;48.312;9.246;2023-06-19T16:46:36;60.11;37.97;81.64;;
1754;Laerm;58380;48.312;9.246;2023-06-19T16:49:01;50.94;36.78;78.56;;
1754;Laerm;58380;48.312;9.246;2023-06-19T16:51:27;52.25;36.18;81.48;;
1754;Laerm;58380;48.312;9.246;2023-06-19T16:53:52;50.04;36.54;74.76;;
1754;Laerm;58380;48.312;9.246;2023-06-19T16:56:18;54.55;34.92;84.67;;
1754;Laerm;58380;48.312;9.246;2023-06-19T16:58:43;47.23;36.05;71.74;;
1754;Laerm;58380;48.312;9.246;2023-06-19T17:01:09;50.08;35.09;77.29;;
1754;Laerm;58380;48.312;9.246;2023-06-19T17:03:34;49.45;34.17;79.08;;
1754;Laerm;58380;48.312;9.246;2023-06-19T17:05:59;52.41;35.18;81.44;;
1754;Laerm;58380;48.312;9.246;2023-06-19T17:08:25;58.36;35.03;86.37;;
1754;Laerm;58380;48.312;9.246;2023-06-19T17:10:50;53.55;34.40;83.23;;
1754;Laerm;58380;48.312;9.246;2023-06-19T17:13:16;64.46;36.07;98.10;;
1754;Laerm;58380;48.312;9.246;2023-06-19T17:15:41;53.64;34.88;78.79;;
1754;Laerm;58380;48.312;9.246;2023-06-19T17:18:07;52.12;34.63;77.08;;
1754;Laerm;58380;48.312;9.246;2023-06-19T17:20:32;44.82;33.85;71.46;;
1754;Laerm;58380;48.312;9.246;2023-06-19T17:22:58;44.96;36.99;71.45;;
1754;Laerm;58380;48.312;9.246;2023-06-19T17:25:24;51.34;35.21;77.11;;
1754;Laerm;58380;48.312;9.246;2023-06-19T17:27:49;44.00;35.47;62.39;;
1754;Laerm;58380;48.312;9.246;2023-06-19T17:30:15;53.25;36.53;80.47;;
1754;Laerm;58380;48.312;9.246;2023-06-19T17:32:41;57.73;34.27;84.52;;
1754;Laerm;58380;48.312;9.246;2023-06-19T17:35:09;47.74;33.07;77.10;;
1754;Laerm;58380;48.312;9.246;2023-06-19T17:37:35;45.86;34.73;67.48;;
1754;Laerm;58380;48.312;9.246;2023-06-19T17:40:03;48.23;36.88;75.13;;
1754;Laerm;58380;48.312;9.246;2023-06-19T17:42:29;49.34;33.59;78.71;;
1754;Laerm;58380;48.312;9.246;2023-06-19T17:44:55;44.83;34.40;59.63;;
1754;Laerm;58380;48.312;9.246;2023-06-19T17:47:21;43.33;33.82;59.02;;
1754;Laerm;58380;48.312;9.246;2023-06-19T17:49:46;43.63;36.04;58.02;;
1754;Laerm;58380;48.312;9.246;2023-06-19T17:52:14;43.82;33.69;60.04;;
1754;Laerm;58380;48.312;9.246;2023-06-19T17:54:40;42.75;33.49;53.17;;
1754;Laerm;58380;48.312;9.246;2023-06-19T17:57:07;42.56;34.58;50.06;;
1754;Laerm;58380;48.312;9.246;2023-06-19T17:59:32;42.93;36.39;54.98;;
1754;Laerm;58380;48.312;9.246;2023-06-19T18:01:59;42.29;35.14;52.15;;
1754;Laerm;58380;48.312;9.246;2023-06-19T18:04:24;43.51;34.92;52.78;;
1754;Laerm;58380;48.312;9.246;2023-06-19T18:06:50;42.82;34.58;52.91;;
1754;Laerm;58380;48.312;9.246;2023-06-19T18:09:15;43.25;34.11;52.37;;
1754;Laerm;58380;48.312;9.246;2023-06-19T18:11:41;43.22;34.59;61.48;;
1754;Laerm;58380;48.312;9.246;2023-06-19T18:14:06;43.93;35.22;56.19;;
1754;Laerm;58380;48.312;9.246;2023-06-19T18:16:31;43.90;35.31;56.42;;
1754;Laerm;58380;48.312;9.246;2023-06-19T18:18:57;43.37;33.94;54.35;;
1754;Laerm;58380;48.312;9.246;2023-06-19T18:21:22;42.44;34.21;53.97;;
1754;Laerm;58380;48.312;9.246;2023-06-19T18:23:48;43.21;36.19;55.45;;
1754;Laerm;58380;48.312;9.246;2023-06-19T18:26:13;42.31;34.15;55.05;;
1754;Laerm;58380;48.312;9.246;2023-06-19T18:28:40;39.90;32.96;49.81;;
1754;Laerm;58380;48.312;9.246;2023-06-19T18:31:05;41.98;34.71;51.46;;
1754;Laerm;58380;48.312;9.246;2023-06-19T18:33:31;40.63;32.58;48.98;;
1754;Laerm;58380;48.312;9.246;2023-06-19T18:35:56;42.18;34.08;51.66;;
1754;Laerm;58380;48.312;9.246;2023-06-19T18:38:21;41.81;32.79;52.90;;
1754;Laerm;58380;48.312;9.246;2023-06-19T18:40:47;43.71;35.91;54.91;;
1754;Laerm;58380;48.312;9.246;2023-06-19T18:43:13;45.95;34.51;62.30;;
1754;Laerm;58380;48.312;9.246;2023-06-19T18:45:39;41.53;32.88;52.72;;
1754;Laerm;58380;48.312;9.246;2023-06-19T18:48:05;41.29;33.86;54.29;;
1754;Laerm;58380;48.312;9.246;2023-06-19T18:50:31;42.81;33.80;53.93;;
1754;Laerm;58380;48.312;9.246;2023-06-19T18:52:57;43.07;34.77;51.64;;
1754;Laerm;58380;48.312;9.246;2023-06-19T18:55:22;42.10;33.34;54.70;;
1754;Laerm;58380;48.312;9.246;2023-06-19T18:57:47;42.74;35.79;49.62;;
1754;Laerm;58380;48.312;9.246;2023-06-19T19:00:17;41.99;33.98;60.14;;
1754;Laerm;58380;48.312;9.246;2023-06-19T19:02:42;37.81;31.96;47.15;;
1754;Laerm;58380;48.312;9.246;2023-06-19T19:05:08;39.76;32.99;49.90;;
1754;Laerm;58380;48.312;9.246;2023-06-19T19:07:33;42.01;33.92;53.72;;
1754;Laerm;58380;48.312;9.246;2023-06-19T19:09:59;40.85;33.71;50.29;;
1754;Laerm;58380;48.312;9.246;2023-06-19T19:12:24;42.07;33.22;51.10;;
1754;Laerm;58380;48.312;9.246;2023-06-19T19:14:49;39.41;32.49;51.40;;
1754;Laerm;58380;48.312;9.246;2023-06-19T19:17:15;41.04;33.54;50.49;;
1754;Laerm;58380;48.312;9.246;2023-06-19T19:19:41;40.72;34.84;47.82;;
1754;Laerm;58380;48.312;9.246;2023-06-19T19:22:06;46.57;34.50;57.69;;
1754;Laerm;58380;48.312;9.246;2023-06-19T19:24:32;38.39;32.79;51.40;;
1754;Laerm;58380;48.312;9.246;2023-06-19T19:26:58;43.65;32.96;55.34;;
1754;Laerm;58380;48.312;9.246;2023-06-19T19:29:23;42.66;32.52;58.41;;
1754;Laerm;58380;48.312;9.246;2023-06-19T19:31:49;41.39;33.24;59.21;;
1754;Laerm;58380;48.312;9.246;2023-06-19T19:34:14;40.80;33.04;56.01;;
1754;Laerm;58380;48.312;9.246;2023-06-19T19:36:46;41.32;33.93;59.07;;
1754;Laerm;58380;48.312;9.246;2023-06-19T19:39:13;40.85;34.43;58.54;;
1754;Laerm;58380;48.312;9.246;2023-06-19T19:41:38;45.57;37.69;63.83;;
1754;Laerm;58380;48.312;9.246;2023-06-19T19:44:06;51.80;34.39;80.71;;
1754;Laerm;58380;48.312;9.246;2023-06-19T19:46:32;43.20;33.90;60.09;;
1754;Laerm;58380;48.312;9.246;2023-06-19T19:48:57;42.45;33.89;57.54;;
1754;Laerm;58380;48.312;9.246;2023-06-19T19:51:22;44.57;35.27;55.44;;
1754;Laerm;58380;48.312;9.246;2023-06-19T19:53:48;43.92;34.57;55.61;;
1754;Laerm;58380;48.312;9.246;2023-06-19T19:56:13;42.91;34.26;53.21;;
1754;Laerm;58380;48.312;9.246;2023-06-19T19:58:38;41.05;32.74;55.75;;